»·PEaware :: SWA1514 KSNA-KLAS

SWA1514 :: KSNA-KLAS

FLIGHT INFORMATION

Flight Status: Arrived
Operator:
Southwest Airlines
More flights by this operator :: More flights under this callsign
Pilot: Cody B. (17747)
Aircraft: BOEING 737-800
(B738)
More flights by this aircraft type
Origin: KSNA John Wayne-Orange Co
United States
Destination: KLAS McCarran Intl
United States
More flights between these airports :: More routes between these airports
Route: +FINZZ2 MISEN KEPEC6
File this flight plan on PilotEdge
Remarks:
Altitude:
(Current/Filed)
29,000ft
Speed:
(Current/Filed)
455kts
Departed: 09-Apr-18 10:40 AM
Arrived: 09-Apr-18 11:31 AM
Distance/Time
Traveled:
197nm/0:51
Distance/Time
To Go:
Arrived

Flight Plot

Page will automatically refresh every two minutes.

Flight plan parsing failed; only flown route is shown


Map Options




Map Legend


Flown Route
Filed Route
Departure Airport
Arrival Airport
Navaid (VOR, NDB)
Fix

Horizontal Profiles

Position Reports

Time Latitude Longitude Heading Altitude Ground
Speed
09-Apr-18 09:49 33.675383 -117.864904 118 47ft 0kts
09-Apr-18 09:50 33.675383 -117.864904 118 47ft 0kts
09-Apr-18 09:51 33.675383 -117.864904 118 47ft 0kts
09-Apr-18 09:52 33.675383 -117.864904 118 47ft 0kts
09-Apr-18 09:53 33.675383 -117.864904 118 47ft 0kts
09-Apr-18 09:54 33.675383 -117.864904 118 47ft 0kts
09-Apr-18 09:55 33.675383 -117.864904 118 47ft 0kts
09-Apr-18 09:56 33.675383 -117.864904 118 47ft 0kts
09-Apr-18 09:57 33.675383 -117.864904 118 47ft 0kts
09-Apr-18 09:58 33.675383 -117.864904 118 47ft 0kts
09-Apr-18 09:59 33.675383 -117.864904 118 47ft 0kts
09-Apr-18 10:00 33.675383 -117.864904 118 47ft 0kts
09-Apr-18 10:01 33.675383 -117.864904 118 47ft 0kts
09-Apr-18 10:02 33.675383 -117.864904 118 47ft 0kts
09-Apr-18 10:03 33.675383 -117.864904 118 47ft 0kts
09-Apr-18 10:04 33.675383 -117.864904 118 47ft 0kts
09-Apr-18 10:05 33.675383 -117.864904 118 47ft 0kts
09-Apr-18 10:06 33.675383 -117.864904 118 47ft 0kts
09-Apr-18 10:07 33.675383 -117.864904 118 47ft 0kts
09-Apr-18 10:08 33.675383 -117.864904 118 47ft 0kts
09-Apr-18 10:09 33.675383 -117.864904 118 47ft 0kts
09-Apr-18 10:10 33.675383 -117.864904 118 47ft 0kts
09-Apr-18 10:11 33.675383 -117.864904 118 47ft 0kts
09-Apr-18 10:12 33.675383 -117.864904 118 47ft 0kts
09-Apr-18 10:13 33.675383 -117.864904 118 47ft 0kts
09-Apr-18 10:14 33.675383 -117.864904 118 47ft 0kts
09-Apr-18 10:15 33.675383 -117.864904 118 47ft 0kts
09-Apr-18 10:16 33.675383 -117.864904 118 47ft 0kts
09-Apr-18 10:17 33.675383 -117.864904 118 47ft 0kts
09-Apr-18 10:18 33.675383 -117.864904 118 47ft 0kts
09-Apr-18 10:19 33.675383 -117.864904 118 47ft 0kts
09-Apr-18 10:20 33.675383 -117.864904 118 47ft 0kts
09-Apr-18 10:21 33.675383 -117.864904 118 47ft 0kts
09-Apr-18 10:22 33.675383 -117.864904 118 47ft 0kts
09-Apr-18 10:23 33.675383 -117.864904 118 47ft 0kts
09-Apr-18 10:24 33.675383 -117.864904 118 47ft 0kts
09-Apr-18 10:25 33.675589 -117.865376 95 48ft 2kts
09-Apr-18 10:26 33.675465 -117.865636 27 48ft 0kts
09-Apr-18 10:27 33.675465 -117.865636 27 48ft 0kts
09-Apr-18 10:28 33.675465 -117.865636 27 48ft 0kts
09-Apr-18 10:29 33.675520 -117.865601 28 48ft 1kts
09-Apr-18 10:30 33.675961 -117.865314 27 48ft 3kts
09-Apr-18 10:31 33.677718 -117.864194 27 44ft 11kts
09-Apr-18 10:32 33.680359 -117.862725 341 42ft 4kts
09-Apr-18 10:33 33.680616 -117.863031 300 43ft 0kts
09-Apr-18 10:34 33.680616 -117.863031 300 43ft 0kts
09-Apr-18 10:35 33.680635 -117.863071 299 43ft 0kts
09-Apr-18 10:36 33.680635 -117.863071 299 43ft 0kts
09-Apr-18 10:37 33.680723 -117.863260 298 43ft 2kts
09-Apr-18 10:38 33.681454 -117.864949 278 44ft 4kts
09-Apr-18 10:39 33.677446 -117.867715 207 50ft 89kts
09-Apr-18 10:40 33.636548 -117.893198 205 1927ft 190kts
09-Apr-18 10:41 33.576731 -117.902877 197 3738ft 264kts
09-Apr-18 10:42 33.517951 -117.959712 223 6859ft 285kts
09-Apr-18 10:43 33.518128 -118.043455 312 9825ft 290kts
09-Apr-18 10:44 33.581169 -118.108195 349 12218ft 318kts
09-Apr-18 10:45 33.666377 -118.080260 19 15186ft 331kts
09-Apr-18 10:46 33.751528 -118.034749 23 16952ft 343kts
09-Apr-18 10:47 33.836904 -117.985195 23 16958ft 345kts
09-Apr-18 10:48 33.922735 -117.931401 35 19489ft 361kts
09-Apr-18 10:49 34.003457 -117.856119 34 21715ft 376kts
09-Apr-18 10:50 34.087655 -117.778595 37 23719ft 391kts
09-Apr-18 10:51 34.157251 -117.677277 48 25599ft 405kts
09-Apr-18 10:52 34.228769 -117.570538 47 27358ft 414kts
09-Apr-18 10:53 34.301904 -117.461491 47 28866ft 425kts
09-Apr-18 10:54 34.365659 -117.366194 47 29102ft 457kts
09-Apr-18 10:55 34.446579 -117.243769 48 29207ft 471kts
09-Apr-18 10:56 34.528041 -117.120765 48 29209ft 469kts
09-Apr-18 10:57 34.610922 -116.999842 47 29192ft 469kts
09-Apr-18 10:58 34.693764 -116.878682 47 29191ft 469kts
09-Apr-18 10:59 34.776691 -116.756943 47 29191ft 468kts
09-Apr-18 11:00 34.860243 -116.635147 43 29189ft 467kts
09-Apr-18 11:01 34.961338 -116.539247 34 29176ft 444kts
09-Apr-18 11:02 35.052776 -116.451842 34 27900ft 414kts
09-Apr-18 11:03 35.138972 -116.359488 42 25955ft 423kts
09-Apr-18 11:04 35.219688 -116.255785 43 24225ft 421kts
09-Apr-18 11:05 35.296636 -116.158057 42 23976ft 382kts
09-Apr-18 11:06 35.369741 -116.065800 42 22048ft 374kts
09-Apr-18 11:07 35.440639 -115.976145 42 20056ft 363kts
09-Apr-18 11:08 35.509878 -115.888644 42 18057ft 353kts
09-Apr-18 11:09 35.576753 -115.804145 42 16061ft 340kts
09-Apr-18 11:10 35.641383 -115.722722 43 14056ft 328kts
09-Apr-18 11:11 35.712298 -115.662116 14 13052ft 306kts
09-Apr-18 11:12 35.795807 -115.632334 15 13044ft 314kts
09-Apr-18 11:13 35.878995 -115.599885 15 13044ft 314kts
09-Apr-18 11:14 35.960745 -115.562930 35 13040ft 318kts
09-Apr-18 11:15 36.002251 -115.467113 65 13002ft 306kts
09-Apr-18 11:16 36.029987 -115.376533 75 12993ft 278kts
09-Apr-18 11:17 36.024372 -115.276594 93 11022ft 299kts
09-Apr-18 11:18 36.016941 -115.179956 91 8775ft 266kts
09-Apr-18 11:19 36.003051 -115.096644 98 8640ft 244kts
09-Apr-18 11:20 35.986953 -115.016364 124 8047ft 246kts
09-Apr-18 11:21 35.922676 -115.001376 203 7637ft 249kts
09-Apr-18 11:22 35.892942 -115.064051 274 6328ft 212kts
09-Apr-18 11:23 35.894588 -115.141448 275 5037ft 233kts
09-Apr-18 11:24 35.895875 -115.214936 280 5024ft 201kts
09-Apr-18 11:25 35.930448 -115.246050 13 5034ft 171kts
09-Apr-18 11:26 35.973530 -115.229164 26 4675ft 154kts
09-Apr-18 11:27 36.009630 -115.208716 24 3942ft 136kts
09-Apr-18 11:28 36.043499 -115.188577 25 3075ft 135kts
09-Apr-18 11:29 36.076686 -115.169682 26 2235ft 128kts
09-Apr-18 11:30 36.093422 -115.159955 42 2110ft 17kts
09-Apr-18 11:31 36.093352 -115.158693 115 2105ft 0kts
09-Apr-18 11:32 36.092274 -115.155873 117 2098ft 18kts
09-Apr-18 11:33 36.087362 -115.157749 202 2119ft 20kts
09-Apr-18 11:34 36.086775 -115.157956 168 2122ft 0kts
09-Apr-18 11:35 36.084675 -115.156793 154 2122ft 12kts
09-Apr-18 11:36 36.081690 -115.155060 154 2121ft 8kts
09-Apr-18 11:37 36.080012 -115.154092 155 2123ft 4kts
09-Apr-18 11:38 36.078795 -115.153240 118 2122ft 5kts
09-Apr-18 11:39 36.078660 -115.149397 95 2108ft 11kts
09-Apr-18 11:40 36.079329 -115.147553 333 2100ft 7kts
09-Apr-18 11:41 36.079897 -115.147167 55 2097ft 2kts
09-Apr-18 11:42 36.079922 -115.147121 55 2096ft 0kts
09-Apr-18 11:43 36.079922 -115.147121 55 2096ft 0kts
09-Apr-18 11:44 36.079922 -115.147121 55 2096ft 0kts

Navigation Log

Ident Type
Flight plan parsing failed, navigation log unavailable